Time;durP1;ratioP1;P1;durP2;ratioP2;P2;SDS_P1;SDS_P2;PMS_P1;PMS_P2;Temp;Humidity;BMP_temperature;BMP_pressure;BME280_temperature;BME280_humidity;BME280_pressure;Samples;Min_cycle;Max_cycle;Signal;HPM_P1;HPM_P2
2023/01/11 00:00:10;;;;;;;11.52;7.93;;;8.80;99.90;;;;;;5045821;28;20057;-84
2023/01/11 00:02:36;;;;;;;8.07;4.80;;;8.80;99.90;;;;;;5061758;28;20052;-87
2023/01/11 00:05:02;;;;;;;10.70;6.97;;;8.80;99.90;;;;;;5062650;28;20040;-86
2023/01/11 00:07:28;;;;;;;8.80;6.18;;;8.80;99.90;;;;;;5062585;28;20137;-87
2023/01/11 00:09:54;;;;;;;7.32;4.28;;;8.90;99.90;;;;;;5079058;28;20083;-87
2023/01/11 00:12:19;;;;;;;15.52;8.23;;;8.90;99.90;;;;;;5078920;28;20105;-85
2023/01/11 00:14:45;;;;;;;12.30;6.90;;;8.90;99.90;;;;;;5062054;28;20075;-87
2023/01/11 00:17:11;;;;;;;15.45;8.48;;;9.00;99.90;;;;;;5062035;28;20036;-85
2023/01/11 00:19:37;;;;;;;12.60;7.53;;;8.90;99.90;;;;;;5078591;28;20040;-86
2023/01/11 00:22:02;;;;;;;14.40;8.68;;;8.90;99.90;;;;;;5062347;28;20392;-89
2023/01/11 00:24:28;;;;;;;10.02;6.65;;;9.00;99.90;;;;;;5062308;28;20048;-87
2023/01/11 00:26:54;;;;;;;8.73;5.65;;;9.00;99.90;;;;;;5078793;28;20535;-87
2023/01/11 00:29:20;;;;;;;9.32;5.82;;;9.00;99.90;;;;;;5079039;28;20101;-89
2023/01/11 00:31:45;;;;;;;9.32;6.18;;;9.10;99.90;;;;;;5078545;28;20438;-92
2023/01/11 00:34:11;;;;;;;11.30;6.10;;;9.10;99.90;;;;;;5062000;28;20051;-87
2023/01/11 00:36:37;;;;;;;10.07;6.18;;;9.20;99.90;;;;;;5078816;28;20036;-89
2023/01/11 00:39:03;;;;;;;9.82;6.28;;;9.20;99.90;;;;;;5078309;28;20384;-87
2023/01/11 00:49:42;;;;;;;9.20;5.88;;;9.30;99.90;;;;;;5064151;28;20130;-86
2023/01/11 00:52:08;;;;;;;9.63;5.57;;;9.30;99.90;;;;;;5061652;28;20048;-85
2023/01/11 00:54:38;;;;;;;8.15;5.38;;;9.30;99.90;;;;;;5061608;28;20054;-89
2023/01/11 00:57:06;;;;;;;7.10;4.65;;;9.30;99.90;;;;;;5061109;28;20087;-87
2023/01/11 00:59:33;;;;;;;5.47;3.72;;;9.40;99.90;;;;;;5077989;28;20093;-88
2023/01/11 01:01:59;;;;;;;7.68;4.70;;;9.40;99.90;;;;;;5060833;28;20044;-83
2023/01/11 01:04:24;;;;;;;8.20;4.60;;;9.40;99.90;;;;;;5061253;28;20537;-85
2023/01/11 01:06:50;;;;;;;7.53;4.50;;;9.40;99.90;;;;;;5061174;28;20048;-86
2023/01/11 01:09:16;;;;;;;8.93;5.75;;;9.50;99.90;;;;;;5044770;28;20054;-85
2023/01/11 01:11:41;;;;;;;9.63;5.80;;;9.40;99.90;;;;;;5078027;28;20051;-84
2023/01/11 01:14:27;;;;;;;7.95;5.35;;;9.50;99.90;;;;;;5044509;28;20040;-83
2023/01/11 01:16:58;;;;;;;9.23;5.57;;;9.50;99.90;;;;;;5077718;28;20051;-85
2023/01/11 01:19:26;;;;;;;7.28;4.50;;;9.50;99.90;;;;;;5060695;28;20408;-84
2023/01/11 01:21:53;;;;;;;6.35;4.25;;;9.50;99.90;;;;;;5060996;28;20048;-87
2023/01/11 01:24:19;;;;;;;9.45;6.20;;;9.60;99.90;;;;;;5061283;28;20543;-87
2023/01/11 01:26:45;;;;;;;9.95;6.03;;;9.60;99.90;;;;;;5061088;28;20154;-87
2023/01/11 01:29:12;;;;;;;9.63;5.82;;;9.60;99.90;;;;;;5060780;28;20048;-87
2023/01/11 01:31:38;;;;;;;9.35;5.85;;;9.60;99.90;;;;;;5060931;28;20074;-87
2023/01/11 01:34:05;;;;;;;9.75;6.03;;;9.60;99.90;;;;;;5077394;28;20048;-84
2023/01/11 01:36:31;;;;;;;8.77;4.93;;;9.70;99.90;;;;;;5061012;28;20495;-88
2023/01/11 01:38:59;;;;;;;7.70;4.65;;;9.70;99.90;;;;;;5060485;28;20047;-85
2023/01/11 01:41:26;;;;;;;9.82;5.38;;;9.70;99.90;;;;;;5044179;28;20404;-86
2023/01/11 01:43:57;;;;;;;9.93;6.20;;;9.70;99.90;;;;;;5043941;28;20055;-84
2023/01/11 01:46:28;;;;;;;10.57;5.72;;;9.70;99.90;;;;;;5077414;28;20079;-84
2023/01/11 01:49:10;;;;;;;9.23;4.85;;;9.70;99.90;;;;;;5076792;28;20048;-86
2023/01/11 01:51:57;;;;;;;7.47;4.88;;;9.70;99.90;;;;;;5077148;28;20076;-84
2023/01/11 01:54:29;;;;;;;8.32;4.57;;;9.70;99.90;;;;;;5060300;28;20044;-85
2023/01/11 01:57:02;;;;;;;5.88;4.10;;;9.80;99.90;;;;;;5076469;28;20059;-84
2023/01/11 01:59:31;;;;;;;6.57;4.40;;;9.90;99.90;;;;;;5077058;28;20040;-86
2023/01/11 02:01:57;;;;;;;9.82;5.65;;;9.90;99.90;;;;;;5076512;28;20036;-84
2023/01/11 02:04:30;;;;;;;7.53;4.88;;;9.90;99.90;;;;;;5076363;28;20059;-85
2023/01/11 02:07:01;;;;;;;7.70;4.80;;;9.90;99.90;;;;;;5060051;28;20044;-85
2023/01/11 02:09:43;;;;;;;7.28;4.70;;;9.90;99.90;;;;;;5076812;28;20051;-89
2023/01/11 02:12:09;;;;;;;;;;;10.00;99.90;;;;;;5076970;28;20044;-86
2023/01/11 02:14:37;;;;;;;6.18;3.78;;;10.00;99.90;;;;;;5076229;28;19949;-86
2023/01/11 02:17:03;;;;;;;5.93;3.83;;;10.00;99.90;;;;;;5076540;28;20058;-89
2023/01/11 02:19:56;;;;;;;7.68;4.38;;;10.00;99.90;;;;;;5076206;28;20044;-88
2023/01/11 02:22:39;;;;;;;9.02;5.35;;;10.10;99.90;;;;;;5076525;28;20377;-86
2023/01/11 02:25:38;;;;;;;8.43;4.55;;;10.10;99.90;;;;;;5076308;28;20087;-88
2023/01/11 02:28:07;;;;;;;8.15;5.00;;;10.00;99.90;;;;;;5075930;28;20086;-87
2023/01/11 02:31:02;;;;;;;7.80;4.47;;;10.00;99.90;;;;;;5076338;28;20044;-87
2023/01/11 02:34:02;;;;;;;9.38;4.55;;;10.10;99.90;;;;;;5076280;28;20052;-88
2023/01/11 02:36:55;;;;;;;7.90;4.78;;;10.20;99.90;;;;;;5076296;28;20048;-84
2023/01/11 02:39:29;;;;;;;10.45;5.40;;;10.20;99.90;;;;;;5076001;28;20055;-85
2023/01/11 02:45:00;;;;;;;9.85;5.38;;;10.30;99.90;;;;;;5076019;28;20048;-86
2023/01/11 02:47:53;;;;;;;11.60;4.75;;;10.20;99.90;;;;;;5076190;28;20040;-86
2023/01/11 02:50:28;;;;;;;10.23;5.40;;;10.30;99.90;;;;;;5058991;28;20051;-84
2023/01/11 02:53:12;;;;;;;8.10;4.70;;;10.20;99.90;;;;;;5059313;28;20158;-85
2023/01/11 02:55:42;;;;;;;9.07;5.30;;;10.30;99.90;;;;;;5075408;28;20467;-85
2023/01/11 02:58:11;;;;;;;5.82;4.15;;;10.40;99.90;;;;;;5075625;28;20105;-86
2023/01/11 03:00:40;;;;;;;9.88;5.75;;;10.40;99.90;;;;;;5058537;28;20048;-84
2023/01/11 03:03:20;;;;;;;5.75;4.00;;;10.40;99.90;;;;;;5042638;28;20055;-87
2023/01/11 03:05:57;;;;;;;8.07;5.45;;;10.40;99.90;;;;;;5075726;28;20052;-86
2023/01/11 03:08:54;;;;;;;7.32;4.45;;;10.50;99.90;;;;;;5058915;28;20048;-86
2023/01/11 03:14:39;;;;;;;7.90;5.05;;;10.50;99.90;;;;;;5060629;28;20075;-87
2023/01/11 03:17:24;;;;;;;6.75;5.00;;;10.50;99.90;;;;;;5058448;28;20097;-84
2023/01/11 03:20:00;;;;;;;4.68;3.00;;;10.60;99.90;;;;;;5075145;28;20092;-85
2023/01/11 03:22:37;;;;;;;6.93;4.50;;;10.60;99.90;;;;;;5075209;28;20043;-85
2023/01/11 03:25:27;;;;;;;7.38;4.47;;;10.70;99.90;;;;;;5075109;28;20127;-86
2023/01/11 03:28:07;;;;;;;7.65;4.60;;;10.70;99.90;;;;;;5075431;28;20058;-85
2023/01/11 03:30:45;;;;;;;6.65;4.50;;;10.80;99.90;;;;;;5075484;28;20415;-86
2023/01/11 03:33:35;;;;;;;6.38;3.67;;;10.70;99.90;;;;;;5075226;28;20044;-86
2023/01/11 03:36:24;;;;;;;5.25;2.95;;;10.80;99.90;;;;;;5075604;28;20440;-85
2023/01/11 03:38:59;;;;;;;5.47;3.45;;;10.70;99.90;;;;;;5075275;28;20377;-88
2023/01/11 03:41:31;;;;;;;6.47;3.75;;;10.80;99.90;;;;;;5075144;28;20146;-83
2023/01/11 03:43:58;;;;;;;;;;;10.70;99.90;;;;;;5058745;28;20051;-84
2023/01/11 03:46:35;;;;;;;5.28;3.63;;;10.70;99.90;;;;;;5058348;28;19920;-85
2023/01/11 03:49:06;;;;;;;5.43;3.35;;;10.80;99.90;;;;;;5075287;28;20094;-87
2023/01/11 03:51:39;;;;;;;5.28;3.08;;;10.80;99.90;;;;;;5075407;28;20040;-86
2023/01/11 03:54:07;;;;;;;6.50;3.53;;;10.80;99.90;;;;;;5075284;28;20091;-86
2023/01/11 03:56:54;;;;;;;6.78;3.90;;;10.70;99.90;;;;;;5057986;28;20056;-86
2023/01/11 03:59:20;;;;;;;7.05;3.28;;;10.70;99.90;;;;;;5074922;28;20480;-85
2023/01/11 04:01:46;;;;;;;7.57;3.38;;;10.70;99.90;;;;;;5058055;28;20051;-87
2023/01/11 04:04:12;;;;;;;7.22;3.03;;;10.80;99.90;;;;;;5058154;28;20062;-87
2023/01/11 04:06:38;;;;;;;4.28;2.60;;;10.90;99.90;;;;;;5058340;28;20054;-86
2023/01/11 04:09:04;;;;;;;4.72;2.65;;;10.90;99.90;;;;;;5075231;28;20549;-85
2023/01/11 04:11:30;;;;;;;5.30;2.67;;;10.90;99.90;;;;;;5075542;28;20098;-85
2023/01/11 04:13:56;;;;;;;5.28;3.00;;;10.90;99.90;;;;;;5076041;28;20464;-86
2023/01/11 04:16:21;;;;;;;4.40;2.75;;;11.00;99.90;;;;;;5075646;28;20059;-86
2023/01/11 04:18:47;;;;;;;6.85;3.95;;;11.00;99.90;;;;;;5058157;28;20051;-86
2023/01/11 04:21:13;;;;;;;5.82;2.80;;;10.90;99.90;;;;;;5057827;28;20051;-89
2023/01/11 04:23:38;;;;;;;6.07;3.63;;;11.00;99.90;;;;;;5058355;28;20051;-85
2023/01/11 04:26:04;;;;;;;7.00;3.70;;;11.00;99.90;;;;;;5058146;28;20579;-84
2023/01/11 04:28:30;;;;;;;10.32;5.43;;;11.10;99.90;;;;;;5057959;28;20048;-85
2023/01/11 04:30:56;;;;;;;8.85;4.80;;;11.00;99.90;;;;;;5058575;28;20098;-85
2023/01/11 04:33:21;;;;;;;7.70;4.70;;;11.10;99.90;;;;;;5041291;28;20087;-85
2023/01/11 04:35:48;;;;;;;6.18;2.83;;;11.10;99.90;;;;;;5058563;28;20051;-84
2023/01/11 04:38:14;;;;;;;6.63;3.03;;;11.20;99.90;;;;;;5078347;28;20040;-86
2023/01/11 04:40:40;;;;;;;3.10;1.65;;;11.10;99.90;;;;;;5045008;28;20046;-86
2023/01/11 04:43:06;;;;;;;2.17;1.20;;;11.20;99.90;;;;;;5078467;28;20040;-87
2023/01/11 04:45:32;;;;;;;2.28;1.40;;;11.20;99.90;;;;;;5061634;28;20074;-87
2023/01/11 04:47:57;;;;;;;2.88;1.60;;;11.20;99.90;;;;;;5061364;28;20586;-83
2023/01/11 04:50:24;;;;;;;3.47;1.42;;;11.20;99.90;;;;;;5061594;28;20075;-84
2023/01/11 04:52:50;;;;;;;3.88;1.77;;;11.20;99.90;;;;;;5045242;28;20051;-83
2023/01/11 04:55:16;;;;;;;4.93;1.88;;;11.20;99.90;;;;;;5061319;28;20376;-83
2023/01/11 04:57:46;;;;;;;4.68;1.77;;;11.30;99.90;;;;;;5076733;28;20043;-83
2023/01/11 05:00:12;;;;;;;5.07;2.08;;;11.30;99.90;;;;;;5063493;28;20052;-84
2023/01/11 05:02:39;;;;;;;2.08;1.60;;;11.20;99.90;;;;;;5044479;28;20083;-83
2023/01/11 05:05:06;;;;;;;6.32;2.58;;;11.30;99.90;;;;;;5061101;28;20078;-81
2023/01/11 05:07:32;;;;;;;3.38;1.90;;;11.30;99.90;;;;;;5077952;28;20055;-83
2023/01/11 05:10:01;;;;;;;5.78;2.55;;;11.20;99.90;;;;;;5061245;28;20044;-82
2023/01/11 05:12:27;;;;;;;5.00;2.47;;;11.30;99.90;;;;;;5061353;28;20106;-82
2023/01/11 05:14:53;;;;;;;10.05;3.60;;;11.30;99.90;;;;;;5044875;28;20481;-81
2023/01/11 05:17:19;;;;;;;7.35;3.30;;;11.40;99.90;;;;;;5060997;28;20139;-82
2023/01/11 05:19:44;;;;;;;5.43;1.83;;;11.20;99.90;;;;;;5077613;28;20039;-83
2023/01/11 05:22:10;;;;;;;6.57;1.85;;;10.90;99.90;;;;;;5044609;28;20040;-82
2023/01/11 05:24:36;;;;;;;5.70;1.30;;;10.60;99.90;;;;;;5077658;28;20062;-84
2023/01/11 05:27:03;;;;;;;8.07;1.52;;;10.50;99.90;;;;;;5044485;28;20131;-81
2023/01/11 05:29:29;;;;;;;7.72;1.15;;;10.40;99.90;;;;;;5077766;28;20105;-82
2023/01/11 05:31:54;;;;;;;8.18;1.30;;;10.30;99.90;;;;;;5028060;28;20048;-82
2023/01/11 05:34:20;;;;;;;5.68;1.45;;;10.20;99.90;;;;;;5061116;28;20464;-87
2023/01/11 05:36:46;;;;;;;7.65;1.58;;;10.20;99.90;;;;;;5060872;28;20484;-82
2023/01/11 05:39:13;;;;;;;5.82;1.60;;;10.30;99.90;;;;;;5044432;28;20040;-83
2023/01/11 05:41:39;;;;;;;5.25;1.80;;;10.30;99.90;;;;;;5044462;28;20086;-82
2023/01/11 05:46:50;;;;;;;9.98;2.28;;;10.30;99.90;;;;;;5077484;28;20109;-83
2023/01/11 05:49:16;;;;;;;9.95;2.78;;;10.40;99.90;;;;;;5026714;28;20048;-83
2023/01/11 05:51:47;;;;;;;10.05;3.17;;;10.40;99.90;;;;;;5060604;28;20048;-83
2023/01/11 05:54:14;;;;;;;6.35;1.67;;;10.90;99.90;;;;;;5060794;28;20043;-83
2023/01/11 05:56:41;;;;;;;12.77;2.90;;;10.50;99.90;;;;;;5076684;28;20139;-82
2023/01/11 05:59:07;;;;;;;12.57;2.40;;;10.60;99.90;;;;;;5060616;28;20109;-83
2023/01/11 06:01:33;;;;;;;10.13;2.55;;;10.60;99.90;;;;;;5043982;28;20036;-82
2023/01/11 06:03:59;;;;;;;11.68;2.00;;;10.60;99.90;;;;;;5060698;28;20059;-82
2023/01/11 06:06:24;;;;;;;12.43;2.30;;;10.60;99.90;;;;;;5027118;28;20048;-86
2023/01/11 06:08:50;;;;;;;11.40;2.60;;;10.60;99.90;;;;;;5027084;28;20036;-83
2023/01/11 06:11:16;;;;;;;12.02;2.47;;;10.70;99.90;;;;;;5060374;28;20040;-83
2023/01/11 06:13:42;;;;;;;14.10;2.47;;;10.60;99.90;;;;;;5076726;28;20062;-82
2023/01/11 06:16:16;;;;;;;10.07;2.83;;;10.60;99.90;;;;;;5060133;28;20480;-81
2023/01/11 06:18:45;;;;;;;12.13;2.38;;;10.60;99.90;;;;;;5059842;28;20498;-83
2023/01/11 06:21:12;;;;;;;10.00;2.30;;;10.60;99.90;;;;;;5060085;28;20373;-82
2023/01/11 06:23:40;;;;;;;16.02;2.70;;;10.60;99.90;;;;;;5075873;28;20043;-83
2023/01/11 06:26:08;;;;;;;13.43;2.90;;;10.60;99.90;;;;;;5076500;28;20105;-86
2023/01/11 06:28:35;;;;;;;21.65;3.67;;;10.60;99.90;;;;;;5059833;28;20097;-89
2023/01/11 06:31:01;;;;;;;13.93;2.80;;;10.60;99.90;;;;;;5075841;28;20127;-86
2023/01/11 06:33:28;;;;;;;15.85;2.80;;;10.60;99.90;;;;;;5058289;28;20044;-87
2023/01/11 06:35:55;;;;;;;17.92;2.95;;;10.60;99.90;;;;;;5058693;28;20044;-87
2023/01/11 06:38:22;;;;;;;21.80;3.65;;;10.50;99.90;;;;;;5074578;28;20416;-88
2023/01/11 06:40:59;;;;;;;31.95;5.35;;;10.70;99.90;;;;;;5058127;28;20047;-88
2023/01/11 06:43:27;;;;;;;20.20;3.15;;;10.60;99.90;;;;;;5074498;28;20480;-87
2023/01/11 06:45:53;;;;;;;17.48;3.30;;;10.50;99.90;;;;;;5074585;28;20048;-87
2023/01/11 06:48:20;;;;;;;22.17;3.65;;;10.60;99.90;;;;;;5058629;28;20064;-87
2023/01/11 06:50:50;;;;;;;16.60;2.80;;;10.60;99.90;;;;;;5058080;28;20177;-86
2023/01/11 06:53:16;;;;;;;17.63;2.85;;;10.60;99.90;;;;;;5058149;28;20131;-87
2023/01/11 06:55:42;;;;;;;17.23;2.78;;;10.60;99.90;;;;;;5057205;28;20095;-88
2023/01/11 06:58:08;;;;;;;15.18;2.67;;;10.60;99.90;;;;;;5058285;28;20052;-87
2023/01/11 07:00:34;;;;;;;24.10;3.25;;;10.60;99.90;;;;;;5075242;28;20127;-87
2023/01/11 07:03:04;;;;;;;22.27;2.67;;;10.60;99.90;;;;;;5075971;28;20503;-86
2023/01/11 07:05:34;;;;;;;21.67;2.63;;;10.60;99.90;;;;;;5059863;28;20055;-85
2023/01/11 07:08:00;;;;;;;23.70;2.70;;;10.70;99.90;;;;;;5059305;28;20055;-86
2023/01/11 07:10:26;;;;;;;15.00;2.42;;;10.70;99.90;;;;;;5059319;28;20059;-86
2023/01/11 07:12:52;;;;;;;24.25;2.83;;;10.70;99.90;;;;;;5059050;28;20044;-87
2023/01/11 07:15:18;;;;;;;13.35;2.55;;;10.70;99.90;;;;;;5059270;28;20075;-88
2023/01/11 07:17:46;;;;;;;18.17;2.40;;;10.70;99.90;;;;;;5058830;28;20395;-88
2023/01/11 07:20:12;;;;;;;20.92;2.47;;;10.60;99.90;;;;;;5042426;28;20044;-87
2023/01/11 07:22:38;;;;;;;14.18;2.28;;;10.60;99.90;;;;;;5075530;28;20048;-87
2023/01/11 07:25:04;;;;;;;15.38;2.20;;;10.50;99.90;;;;;;5058948;28;20460;-84
2023/01/11 07:27:30;;;;;;;11.75;2.40;;;10.50;99.90;;;;;;5075567;28;20434;-87
2023/01/11 07:29:58;;;;;;;20.17;2.50;;;10.50;99.90;;;;;;5058816;28;20105;-86
2023/01/11 07:32:26;;;;;;;16.55;2.55;;;10.60;99.90;;;;;;5075801;28;20054;-85
2023/01/11 07:34:52;;;;;;;18.77;2.20;;;10.60;99.90;;;;;;5058448;28;20082;-81
2023/01/11 07:37:18;;;;;;;15.02;2.28;;;10.60;99.90;;;;;;5058947;28;20052;-81
2023/01/11 07:39:45;;;;;;;15.40;2.35;;;10.60;99.90;;;;;;5057664;28;20047;-88
2023/01/11 07:44:56;;;;;;;15.55;2.45;;;10.50;99.90;;;;;;5073640;28;20055;-82
2023/01/11 07:47:22;;;;;;;11.95;2.20;;;10.50;99.90;;;;;;5057123;28;20541;-84
2023/01/11 07:49:47;;;;;;;19.70;2.22;;;10.40;99.90;;;;;;5073462;28;20060;-82
2023/01/11 07:52:13;;;;;;;19.67;2.20;;;10.40;99.90;;;;;;5057071;28;20043;-82
2023/01/11 07:54:39;;;;;;;18.88;3.58;;;10.40;99.90;;;;;;5057378;28;20054;-83
2023/01/11 07:57:04;;;;;;;9.43;1.95;;;10.40;99.90;;;;;;5069963;28;20110;-83
2023/01/11 07:59:30;;;;;;;14.68;2.20;;;10.40;99.90;;;;;;4705226;28;10000095;-82
2023/01/11 08:01:56;;;;;;;14.93;2.10;;;10.30;99.90;;;;;;5037150;28;20450;-82
2023/01/11 08:04:22;;;;;;;19.15;2.72;;;10.40;99.90;;;;;;5070644;28;20048;-83
2023/01/11 08:06:47;;;;;;;17.00;2.13;;;10.40;99.90;;;;;;5053951;28;20139;-82
2023/01/11 08:09:13;;;;;;;13.30;1.85;;;10.40;99.90;;;;;;5053997;28;20489;-82
2023/01/11 08:14:38;;;;;;;12.75;2.03;;;10.30;99.90;;;;;;5060719;28;20044;-83
2023/01/11 08:17:10;;;;;;;21.27;2.47;;;10.30;99.90;;;;;;5043069;28;20056;-83
2023/01/11 08:19:36;;;;;;;17.55;2.55;;;10.30;99.90;;;;;;5057951;28;20047;-82
2023/01/11 08:22:02;;;;;;;9.02;2.08;;;10.30;99.90;;;;;;5041108;28;20044;-82
2023/01/11 08:24:27;;;;;;;14.52;2.50;;;10.30;99.90;;;;;;5074579;28;20045;-82
2023/01/11 08:26:53;;;;;;;15.68;2.90;;;10.30;99.90;;;;;;5073610;28;20106;-83
2023/01/11 08:29:19;;;;;;;23.38;2.72;;;10.20;99.90;;;;;;5073792;28;20060;-83
2023/01/11 08:31:46;;;;;;;13.80;2.65;;;10.20;99.90;;;;;;5056874;28;20581;-88
2023/01/11 08:34:13;;;;;;;18.55;3.10;;;10.30;99.90;;;;;;5058329;28;20399;-82
2023/01/11 08:36:38;;;;;;;16.88;2.83;;;10.30;99.90;;;;;;5058361;28;20522;-82
2023/01/11 08:39:04;;;;;;;17.65;2.38;;;10.30;99.90;;;;;;5058305;28;20080;-82
2023/01/11 08:41:31;;;;;;;14.75;2.40;;;10.30;99.90;;;;;;5057994;28;20134;-82
2023/01/11 08:43:57;;;;;;;16.40;2.67;;;10.30;99.90;;;;;;5058314;28;20048;-81
2023/01/11 08:46:23;;;;;;;15.80;2.35;;;10.20;99.90;;;;;;5058600;28;20048;-82
2023/01/11 08:48:52;;;;;;;15.15;2.40;;;10.30;99.90;;;;;;5058053;28;20388;-83
2023/01/11 08:51:18;;;;;;;23.65;3.42;;;10.30;99.90;;;;;;5075060;28;20040;-81
2023/01/11 08:53:44;;;;;;;14.50;2.70;;;10.20;99.90;;;;;;5073421;28;20427;-83
2023/01/11 08:56:11;;;;;;;12.35;2.53;;;10.20;99.90;;;;;;5071514;28;20060;-83
2023/01/11 08:58:36;;;;;;;13.05;2.80;;;10.10;99.90;;;;;;5072428;28;20056;-82
2023/01/11 09:01:03;;;;;;;14.82;2.72;;;10.10;99.90;;;;;;5055529;28;20050;-83
2023/01/11 09:03:29;;;;;;;18.48;2.70;;;10.10;99.90;;;;;;5056176;28;20057;-83
2023/01/11 09:05:55;;;;;;;11.82;2.35;;;10.00;99.90;;;;;;5070323;28;20045;-83
2023/01/11 09:08:22;;;;;;;11.75;3.00;;;10.00;99.90;;;;;;5038692;28;20052;-83
2023/01/11 09:10:48;;;;;;;16.42;2.65;;;9.90;99.90;;;;;;5057313;28;20443;-82
2023/01/11 09:13:14;;;;;;;11.18;2.35;;;9.90;99.90;;;;;;5073871;28;20059;-82
2023/01/11 09:15:40;;;;;;;10.73;1.85;;;9.90;99.90;;;;;;5057735;28;20088;-83
2023/01/11 09:18:05;;;;;;;14.60;2.03;;;9.80;99.90;;;;;;5040770;28;20117;-82
2023/01/11 09:20:31;;;;;;;15.63;1.80;;;9.80;99.90;;;;;;5056986;28;20495;-83
2023/01/11 09:22:57;;;;;;;8.80;1.27;;;9.70;99.90;;;;;;5055425;28;20084;-81
2023/01/11 09:25:23;;;;;;;13.63;1.80;;;9.70;99.90;;;;;;5055945;28;20085;-82
2023/01/11 09:27:50;;;;;;;15.27;2.55;;;9.60;99.90;;;;;;5070258;28;20094;-81
2023/01/11 09:30:19;;;;;;;13.32;2.30;;;9.60;99.90;;;;;;5071961;28;20466;-81
2023/01/11 09:32:45;;;;;;;12.25;1.90;;;9.50;99.90;;;;;;5071560;28;20059;-82
2023/01/11 09:35:13;;;;;;;11.57;1.65;;;9.50;99.90;;;;;;5071821;28;20048;-82
2023/01/11 09:37:43;;;;;;;13.02;1.92;;;9.40;99.90;;;;;;5072330;28;20397;-82
2023/01/11 09:40:22;;;;;;;14.35;1.90;;;9.40;99.90;;;;;;5055883;28;20049;-82
2023/01/11 09:42:51;;;;;;;14.50;2.17;;;9.30;99.90;;;;;;5056646;28;20048;-82
2023/01/11 09:45:27;;;;;;;12.30;1.88;;;9.40;99.90;;;;;;5073167;28;20049;-84
2023/01/11 09:48:25;;;;;;;12.70;2.28;;;9.50;99.90;;;;;;5071699;28;20254;-82
2023/01/11 09:50:51;;;;;;;14.40;1.98;;;9.60;99.90;;;;;;5073039;28;20131;-81
2023/01/11 09:53:33;;;;;;;11.95;2.15;;;9.70;99.90;;;;;;5072294;28;20131;-83
2023/01/11 09:56:03;;;;;;;13.00;1.98;;;9.80;99.90;;;;;;5070320;28;20052;-83
2023/01/11 09:59:08;;;;;;;12.43;2.30;;;9.90;99.90;;;;;;5073125;28;20049;-83
2023/01/11 10:01:44;;;;;;;10.15;1.80;;;10.00;99.90;;;;;;5072896;28;20504;-83
2023/01/11 10:04:35;;;;;;;8.57;1.83;;;10.10;99.90;;;;;;5055910;28;20052;-83
2023/01/11 10:07:21;;;;;;;16.23;2.35;;;10.10;99.90;;;;;;5056214;28;20053;-83
2023/01/11 10:10:13;;;;;;;9.82;1.67;;;10.20;99.90;;;;;;5072046;28;20064;-81
2023/01/11 10:13:05;;;;;;;10.90;2.03;;;10.30;99.90;;;;;;5071595;28;20392;-85
2023/01/11 10:15:39;;;;;;;;;;;10.30;99.90;;;;;;5035835;28;20048;-85
2023/01/11 10:18:29;;;;;;;13.52;2.00;;;10.30;99.90;;;;;;5054467;28;19924;-84
2023/01/11 10:21:05;;;;;;;6.35;1.45;;;10.40;99.90;;;;;;5055691;28;20045;-84
2023/01/11 10:23:44;;;;;;;12.32;2.28;;;10.40;99.90;;;;;;5056207;28;20056;-83
2023/01/11 10:26:38;;;;;;;11.75;2.47;;;10.50;99.90;;;;;;5072434;28;20482;-84
2023/01/11 10:29:20;;;;;;;9.43;1.90;;;10.60;99.90;;;;;;5073985;28;20139;-83
2023/01/11 10:32:12;;;;;;;17.42;2.60;;;10.60;99.90;;;;;;5055571;28;20097;-83
2023/01/11 10:35:11;;;;;;;11.07;2.22;;;10.70;99.90;;;;;;5055877;28;20412;-83
2023/01/11 10:40:36;;;;;;;11.13;1.60;;;10.80;99.90;;;;;;5073200;28;20044;-83
2023/01/11 10:43:15;;;;;;;10.45;1.80;;;10.70;99.90;;;;;;5073577;28;20055;-83
2023/01/11 10:45:53;;;;;;;9.18;1.92;;;10.80;99.90;;;;;;5073324;28;20050;-82
2023/01/11 10:48:48;;;;;;;11.10;1.80;;;10.80;99.90;;;;;;5056332;28;20087;-83
2023/01/11 10:51:31;;;;;;;9.88;1.55;;;10.80;99.90;;;;;;5070338;28;20147;-83
2023/01/11 10:54:20;;;;;;;6.35;1.65;;;10.80;99.90;;;;;;5056852;28;20511;-83
2023/01/11 10:57:00;;;;;;;10.80;1.75;;;10.80;99.90;;;;;;5072481;28;20056;-82
2023/01/11 10:59:49;;;;;;;11.57;1.60;;;10.80;99.90;;;;;;5056023;28;20410;-83
2023/01/11 11:02:40;;;;;;;10.27;1.50;;;10.90;99.90;;;;;;5072501;28;20037;-83
2023/01/11 11:05:21;;;;;;;8.88;1.30;;;10.90;99.90;;;;;;5056033;28;20055;-88
2023/01/11 11:08:04;;;;;;;7.05;1.67;;;10.90;99.90;;;;;;5056074;28;20080;-82
2023/01/11 11:10:44;;;;;;;8.70;1.73;;;11.10;99.90;;;;;;5055862;28;20371;-82
2023/01/11 11:13:34;;;;;;;9.00;1.42;;;11.10;99.90;;;;;;5056024;28;20052;-83
2023/01/11 11:16:11;;;;;;;5.82;1.50;;;11.00;99.90;;;;;;5072788;28;20068;-83
2023/01/11 11:18:36;;;;;;;10.60;1.90;;;11.00;99.90;;;;;;5055372;28;20036;-83
2023/01/11 11:21:09;;;;;;;6.07;1.63;;;11.10;99.90;;;;;;5055576;28;20047;-82
2023/01/11 11:23:36;;;;;;;7.20;1.77;;;11.10;99.90;;;;;;5072724;28;20059;-82
2023/01/11 11:26:04;;;;;;;8.98;1.77;;;11.10;99.90;;;;;;5072417;28;20048;-84
2023/01/11 11:28:32;;;;;;;10.52;2.17;;;11.20;99.90;;;;;;5072129;28;20060;-83
2023/01/11 11:31:02;;;;;;;9.05;1.92;;;11.30;99.90;;;;;;5071860;28;20040;-83
2023/01/11 11:33:36;;;;;;;11.65;2.05;;;11.20;99.90;;;;;;5072028;28;20444;-83
2023/01/11 11:36:13;;;;;;;5.95;1.70;;;11.10;99.90;;;;;;5055641;28;20469;-82
2023/01/11 11:38:41;;;;;;;8.05;1.60;;;11.00;99.90;;;;;;5072297;28;20490;-82
2023/01/11 11:41:18;;;;;;;14.48;2.13;;;11.00;99.90;;;;;;5055333;28;20045;-82
2023/01/11 11:43:46;;;;;;;10.88;1.98;;;11.10;99.90;;;;;;5055660;28;20397;-82
2023/01/11 11:46:18;;;;;;;14.30;2.38;;;11.00;99.90;;;;;;5072104;28;20052;-83
2023/01/11 11:49:03;;;;;;;12.23;2.13;;;10.90;99.90;;;;;;5072314;28;20055;-82
2023/01/11 11:51:32;;;;;;;15.43;2.85;;;10.90;99.90;;;;;;5071863;28;20370;-82
2023/01/11 11:54:00;;;;;;;10.63;2.00;;;11.10;99.90;;;;;;5038815;28;20052;-83
2023/01/11 11:56:29;;;;;;;15.73;2.35;;;11.00;99.90;;;;;;5055182;28;20095;-83
2023/01/11 11:58:56;;;;;;;13.90;2.22;;;11.40;99.90;;;;;;5053498;28;20056;-83
2023/01/11 12:01:27;;;;;;;11.48;2.70;;;11.60;90.20;;;;;;5069992;28;20079;-84
2023/01/11 12:03:57;;;;;;;7.55;1.92;;;12.00;99.90;;;;;;5070903;28;20140;-83
2023/01/11 12:06:26;;;;;;;8.57;2.13;;;12.10;99.90;;;;;;5071102;28;20507;-83
2023/01/11 12:08:53;;;;;;;11.63;2.00;;;12.20;19.00;;;;;;5071228;28;20048;-83
2023/01/11 12:11:28;;;;;;;12.07;2.30;;;12.20;99.90;;;;;;5070799;28;20055;-83
2023/01/11 12:14:05;;;;;;;10.63;2.00;;;11.90;99.90;;;;;;5071192;28;20048;-83
2023/01/11 12:16:38;;;;;;;12.00;2.00;;;11.40;99.90;;;;;;5070602;28;20080;-85
2023/01/11 12:19:33;;;;;;;14.38;2.17;;;11.10;99.90;;;;;;5069888;28;20052;-83
2023/01/11 12:22:26;;;;;;;10.18;1.77;;;11.10;1.00;;;;;;4720349;28;9999918;-84
2023/01/11 12:25:23;;;;;;;12.07;2.33;;;11.00;1.00;;;;;;5051422;28;20121;-82
2023/01/11 12:27:48;;;;;;;10.82;1.67;;;11.20;99.90;;;;;;5037822;28;20378;-84
2023/01/11 12:30:34;;;;;;;9.55;1.90;;;11.80;1.00;;;;;;5048979;28;20078;-83
2023/01/11 12:33:09;;;;;;;9.73;1.80;;;12.00;99.90;;;;;;5054463;28;20051;-83
2023/01/11 12:36:02;;;;;;;12.23;1.98;;;12.10;7.60;;;;;;5070788;28;20132;-83
2023/01/11 12:38:53;;;;;;;17.33;1.98;;;11.90;28.60;;;;;;5064659;28;20051;-83
2023/01/11 12:41:51;;;;;;;14.98;2.22;;;11.60;47.40;;;;;;5070148;28;20041;-85
2023/01/11 12:44:23;;;;;;;13.57;2.00;;;11.40;1.00;;;;;;5052810;28;20424;-82
2023/01/11 12:47:01;;;;;;;17.33;1.92;;;11.50;84.70;;;;;;5069695;28;20053;-84
2023/01/11 12:49:53;;;;;;;14.00;2.55;;;11.70;99.90;;;;;;5069526;28;20088;-85
2023/01/11 12:52:31;;;;;;;;;;;11.80;99.90;;;;;;5041148;28;20067;-83
2023/01/11 12:55:21;;;;;;;10.43;2.03;;;11.70;99.90;;;;;;5051049;28;19928;-83
2023/01/11 12:58:04;;;;;;;13.18;2.72;;;11.90;1.00;;;;;;5049682;28;20095;-83
2023/01/11 13:00:30;;;;;;;15.60;2.70;;;11.90;99.90;;;;;;5053625;28;20047;-82
2023/01/11 13:03:06;;;;;;;12.23;2.38;;;11.50;10.00;;;;;;5037880;28;20049;-83
2023/01/11 13:06:11;;;;;;;9.80;1.77;;;11.30;99.90;;;;;;5053374;28;20045;-83
2023/01/11 13:09:07;;;;;;;10.52;2.08;;;11.10;1.00;;;;;;5037258;28;20049;-83
2023/01/11 13:12:04;;;;;;;15.13;3.08;;;11.40;82.70;;;;;;5036417;28;20076;-83
2023/01/11 13:14:44;;;;;;;14.52;2.45;;;11.70;1.00;;;;;;5056177;28;20048;-83
2023/01/11 13:17:29;;;;;;;12.23;2.47;;;11.50;99.90;;;;;;5053856;28;20520;-82
2023/01/11 13:20:22;;;;;;;13.38;2.08;;;11.70;99.90;;;;;;5053797;28;20040;-84
2023/01/11 13:23:00;;;;;;;11.20;2.50;;;11.80;99.90;;;;;;5065441;28;20076;-86
2023/01/11 13:25:31;;;;;;;15.73;2.25;;;11.50;47.00;;;;;;5072840;28;20048;-84
2023/01/11 13:28:00;;;;;;;16.17;2.67;;;11.60;99.90;;;;;;5057329;28;20140;-82
2023/01/11 13:30:27;;;;;;;12.00;2.33;;;11.40;83.50;;;;;;5073330;28;20063;-83
2023/01/11 13:32:58;;;;;;;16.55;2.60;;;11.20;99.90;;;;;;5074132;28;20062;-83
2023/01/11 13:35:50;;;;;;;16.08;2.60;;;10.90;99.90;;;;;;5073306;28;20477;-84